createdAt,value
2018-07-27T00:00:12.081Z,9.83
2018-07-27T00:02:58.185Z,12.28
2018-07-27T00:05:33.051Z,12.47
2018-07-27T00:08:10.455Z,11.97
2018-07-27T00:10:48.267Z,13.30
2018-07-27T00:13:26.030Z,15.32
2018-07-27T00:16:05.958Z,17.37
2018-07-27T00:18:44.980Z,16.20
2018-07-27T00:21:24.141Z,15.68
2018-07-27T00:24:10.905Z,16.32
2018-07-27T00:26:52.964Z,16.00
2018-07-27T00:29:36.399Z,13.80
2018-07-27T00:35:10.501Z,14.38
2018-07-27T00:37:48.868Z,16.23
2018-07-27T00:40:26.563Z,19.77
2018-07-27T00:43:05.914Z,16.67
2018-07-27T00:45:48.939Z,14.95
2018-07-27T00:48:23.821Z,15.88
2018-07-27T00:50:58.851Z,16.20
2018-07-27T00:53:33.634Z,14.75
2018-07-27T00:56:08.793Z,16.87
2018-07-27T00:58:43.032Z,16.90
2018-07-27T01:01:17.800Z,15.68
2018-07-27T01:03:52.503Z,18.02
2018-07-27T01:06:27.698Z,16.95
2018-07-27T01:09:02.022Z,14.73
2018-07-27T01:11:36.868Z,15.90
2018-07-27T01:14:11.603Z,18.65
2018-07-27T01:16:46.409Z,16.70
2018-07-27T01:19:22.224Z,16.00
2018-07-27T01:21:56.964Z,16.15
2018-07-27T01:24:31.258Z,16.62
2018-07-27T01:27:06.053Z,18.32
2018-07-27T01:29:40.806Z,20.95
2018-07-27T01:32:15.517Z,20.17
2018-07-27T01:34:50.303Z,14.95
2018-07-27T01:37:26.127Z,16.90
2018-07-27T01:40:00.913Z,20.88
2018-07-27T01:42:35.689Z,16.27
2018-07-27T01:45:09.972Z,17.57
2018-07-27T01:47:44.707Z,15.08
2018-07-27T01:50:19.479Z,16.40
2018-07-27T01:52:54.210Z,19.50
2018-07-27T01:55:29.012Z,17.32
2018-07-27T01:58:03.261Z,14.73
2018-07-27T02:00:38.073Z,16.02
2018-07-27T02:03:12.781Z,16.35
2018-07-27T02:05:47.058Z,14.80
2018-07-27T02:08:21.861Z,14.45
2018-07-27T02:10:56.689Z,14.35
2018-07-27T02:13:32.435Z,15.28
2018-07-27T02:16:07.198Z,14.13
2018-07-27T02:18:42.230Z,13.95
2018-07-27T02:21:18.027Z,15.93
2018-07-27T02:23:52.851Z,14.83
2018-07-27T02:26:27.649Z,15.45
2018-07-27T02:29:02.427Z,14.95
2018-07-27T02:31:37.222Z,18.87
2018-07-27T02:34:13.043Z,20.05
2018-07-27T02:36:48.909Z,19.12
2018-07-27T02:39:23.884Z,31.20
2018-07-27T02:41:59.653Z,20.40
2018-07-27T02:44:35.418Z,25.00
2018-07-27T02:47:10.243Z,28.55
2018-07-27T02:49:46.005Z,23.02
2018-07-27T02:52:20.800Z,23.45
2018-07-27T02:54:55.897Z,24.25
2018-07-27T02:57:31.641Z,24.02
2018-07-27T03:00:06.880Z,18.27
2018-07-27T03:02:41.193Z,18.35
2018-07-27T03:05:15.955Z,20.62
2018-07-27T03:07:51.744Z,19.23
2018-07-27T03:10:26.504Z,18.90
2018-07-27T03:13:00.840Z,18.20
2018-07-27T03:15:35.711Z,20.72
2018-07-27T03:18:10.503Z,20.48
2018-07-27T03:20:45.252Z,20.75
2018-07-27T03:23:20.019Z,20.97
2018-07-27T03:25:54.970Z,18.60
2018-07-27T03:28:29.233Z,18.07
2018-07-27T03:31:03.986Z,16.00
2018-07-27T03:33:51.833Z,18.32
2018-07-27T03:36:26.722Z,16.67
2018-07-27T03:39:01.507Z,14.47
2018-07-27T03:41:36.948Z,14.47
2018-07-27T03:44:12.690Z,14.75
2018-07-27T03:46:47.452Z,13.85
2018-07-27T03:49:22.228Z,14.47
2018-07-27T03:51:57.004Z,16.70
2018-07-27T03:54:31.795Z,13.70
2018-07-27T03:57:07.700Z,11.63
2018-07-27T03:59:42.471Z,13.62
2018-07-27T04:02:17.582Z,12.63
2018-07-27T04:04:52.523Z,12.60
2018-07-27T04:07:27.290Z,12.63
2018-07-27T04:10:02.784Z,13.40
2018-07-27T04:12:37.534Z,12.82
2018-07-27T04:15:12.292Z,15.70
2018-07-27T04:17:52.232Z,14.43
2018-07-27T04:20:27.000Z,15.68
2018-07-27T04:23:01.788Z,14.85
2018-07-27T04:25:36.509Z,13.78
2018-07-27T04:28:12.368Z,12.82
2018-07-27T04:30:47.199Z,13.70
2018-07-27T04:33:21.949Z,13.15
2018-07-27T04:35:56.727Z,11.22
2018-07-27T04:38:32.490Z,13.13
2018-07-27T04:41:07.449Z,8.45
2018-07-27T04:43:42.184Z,7.30
2018-07-27T04:46:16.908Z,11.30
2018-07-27T04:48:51.648Z,7.15
2018-07-27T04:51:26.603Z,5.37
2018-07-27T04:54:01.405Z,5.87
2018-07-27T04:56:35.873Z,9.17
2018-07-27T04:59:10.528Z,7.03
2018-07-27T05:01:45.000Z,7.67
2018-07-27T05:04:19.425Z,8.13
2018-07-27T05:06:53.365Z,10.73
2018-07-27T05:09:27.804Z,9.60
2018-07-27T05:12:02.248Z,9.57
2018-07-27T05:14:36.712Z,7.87
2018-07-27T05:17:12.215Z,6.07
2018-07-27T05:19:47.697Z,6.60
2018-07-27T05:22:22.134Z,6.53
2018-07-27T05:24:56.594Z,7.07
2018-07-27T05:27:32.076Z,12.70
2018-07-27T05:30:06.549Z,10.53
2018-07-27T05:32:41.120Z,8.73
2018-07-27T05:35:15.536Z,9.50
2018-07-27T05:37:50.031Z,10.37
2018-07-27T05:40:24.680Z,7.43
2018-07-27T05:42:59.205Z,10.80
2018-07-27T05:45:33.656Z,7.53
2018-07-27T05:48:09.161Z,7.63
2018-07-27T05:50:44.605Z,7.60
2018-07-27T05:53:19.110Z,7.00
2018-07-27T05:55:53.050Z,7.57
2018-07-27T05:58:27.500Z,7.57
2018-07-27T06:01:02.053Z,9.60
2018-07-27T06:03:37.056Z,7.53
2018-07-27T06:06:11.772Z,7.13
2018-07-27T06:08:46.328Z,8.30
2018-07-27T06:11:20.929Z,6.33
2018-07-27T06:13:55.379Z,4.83
2018-07-27T06:16:29.355Z,7.53
2018-07-27T06:19:04.855Z,7.87
2018-07-27T06:21:39.301Z,11.07
2018-07-27T06:24:14.934Z,8.90
2018-07-27T06:26:49.490Z,5.40
2018-07-27T06:29:23.970Z,9.03
2018-07-27T06:32:00.487Z,7.03
2018-07-27T06:34:34.949Z,6.10
2018-07-27T06:37:09.782Z,6.03
2018-07-27T06:39:45.475Z,10.33
2018-07-27T06:42:19.908Z,5.73
2018-07-27T06:44:54.412Z,7.60
2018-07-27T06:47:28.820Z,4.73
2018-07-27T06:50:03.326Z,6.20
2018-07-27T06:52:38.757Z,5.63
2018-07-27T06:55:13.171Z,9.50
2018-07-27T06:57:47.625Z,4.90
2018-07-27T07:00:22.092Z,7.03
2018-07-27T07:02:57.572Z,8.67
2018-07-27T07:05:31.997Z,7.57
2018-07-27T07:08:07.469Z,4.37
2018-07-27T07:10:42.930Z,5.50
2018-07-27T07:13:17.388Z,4.70
2018-07-27T07:15:51.768Z,6.73
2018-07-27T07:18:26.219Z,4.30
2018-07-27T07:21:00.621Z,6.57
2018-07-27T07:23:34.584Z,4.03
2018-07-27T07:26:09.715Z,10.07
2018-07-27T07:28:44.881Z,5.63
2018-07-27T07:31:20.963Z,8.03
2018-07-27T07:33:56.450Z,9.53
2018-07-27T07:36:30.932Z,5.27
2018-07-27T07:39:08.604Z,4.53
2018-07-27T07:41:43.340Z,6.73
2018-07-27T07:44:18.338Z,5.37
2018-07-27T07:46:53.772Z,4.53
2018-07-27T07:49:28.250Z,7.43
2018-07-27T07:52:02.859Z,4.87
2018-07-27T07:54:37.329Z,5.33
2018-07-27T07:57:12.765Z,6.53
2018-07-27T07:59:47.639Z,4.87
2018-07-27T08:02:24.283Z,4.90
2018-07-27T08:04:58.752Z,7.87
2018-07-27T08:07:33.142Z,6.00
2018-07-27T08:10:07.676Z,7.13
2018-07-27T08:12:42.612Z,5.47
2018-07-27T08:15:17.122Z,7.37
2018-07-27T08:17:52.649Z,6.27
2018-07-27T08:20:27.171Z,4.90
2018-07-27T08:23:01.620Z,5.63
2018-07-27T08:26:10.999Z,6.23
2018-07-27T08:28:45.482Z,5.73
2018-07-27T08:31:19.912Z,7.80
2018-07-27T08:33:57.715Z,9.60
2018-07-27T08:36:33.204Z,4.90
2018-07-27T08:39:08.929Z,8.13
2018-07-27T08:41:43.664Z,3.93
2018-07-27T08:44:20.503Z,8.37
2018-07-27T08:46:55.021Z,7.00
2018-07-27T08:49:29.461Z,6.83
2018-07-27T08:52:03.950Z,4.50
2018-07-27T08:54:37.876Z,6.93
2018-07-27T08:57:13.359Z,8.40
2018-07-27T08:59:47.776Z,5.07
2018-07-27T09:02:23.227Z,4.97
2018-07-27T09:04:57.676Z,5.67
2018-07-27T09:07:32.148Z,3.73
2018-07-27T09:10:08.175Z,4.83
2018-07-27T09:12:42.759Z,7.10
2018-07-27T09:15:17.240Z,6.57
2018-07-27T09:17:51.681Z,6.57
2018-07-27T09:20:26.134Z,4.53
2018-07-27T09:23:00.067Z,8.97
2018-07-27T09:25:35.563Z,5.43
2018-07-27T09:28:10.040Z,7.10
2018-07-27T09:30:44.576Z,4.70
2018-07-27T09:33:18.992Z,4.77
2018-07-27T09:35:55.846Z,5.20
2018-07-27T09:38:30.275Z,7.10
2018-07-27T09:41:04.854Z,3.80
2018-07-27T09:43:39.236Z,5.43
2018-07-27T09:46:13.734Z,4.40
2018-07-27T09:48:53.156Z,3.77
2018-07-27T09:51:27.621Z,4.30
2018-07-27T09:54:02.025Z,3.67
2018-07-27T09:56:36.562Z,4.33
2018-07-27T09:59:11.043Z,2.97
2018-07-27T10:01:46.711Z,3.23
2018-07-27T10:04:21.128Z,4.53
2018-07-27T10:06:56.597Z,6.13
2018-07-27T10:09:31.049Z,5.93
2018-07-27T10:12:05.050Z,3.50
2018-07-27T10:14:39.488Z,3.17
2018-07-27T10:17:13.930Z,3.70
2018-07-27T10:19:48.361Z,6.57
2018-07-27T10:22:22.845Z,4.57
2018-07-27T10:24:57.435Z,4.10
2018-07-27T10:27:32.973Z,3.73
2018-07-27T10:30:07.816Z,7.50
2018-07-27T10:32:42.316Z,3.57
2018-07-27T10:35:16.787Z,3.33
2018-07-27T10:37:51.373Z,3.80
2018-07-27T10:40:25.801Z,3.70
2018-07-27T10:42:59.790Z,5.07
2018-07-27T10:45:35.248Z,2.90
2018-07-27T10:48:09.776Z,2.80
2018-07-27T10:50:44.199Z,3.30
2018-07-27T10:53:18.214Z,4.60
2018-07-27T10:55:52.639Z,3.23
2018-07-27T10:58:27.113Z,6.47
2018-07-27T11:01:01.549Z,3.37
2018-07-27T11:03:37.068Z,3.43
2018-07-27T11:06:11.497Z,2.80
2018-07-27T11:08:47.052Z,3.03
2018-07-27T11:11:21.510Z,3.73
2018-07-27T11:13:56.036Z,4.77
2018-07-27T11:16:30.455Z,3.33
2018-07-27T11:19:04.951Z,2.50
2018-07-27T11:21:38.881Z,3.87
2018-07-27T11:24:13.350Z,3.37
2018-07-27T11:26:47.817Z,3.53
2018-07-27T11:29:22.304Z,4.40
2018-07-27T11:31:58.095Z,5.30
2018-07-27T11:34:32.624Z,4.63
2018-07-27T11:37:07.128Z,2.73
2018-07-27T11:39:41.768Z,5.73
2018-07-27T11:42:17.312Z,4.87
2018-07-27T11:44:51.472Z,3.77
2018-07-27T11:47:26.966Z,3.63
2018-07-27T11:50:01.471Z,3.30
2018-07-27T11:52:35.952Z,5.90
2018-07-27T11:55:11.493Z,4.50
2018-07-27T11:57:45.940Z,3.83
2018-07-27T12:00:20.916Z,4.67
2018-07-27T12:02:55.604Z,6.27
2018-07-27T12:05:29.581Z,2.93
2018-07-27T12:08:03.537Z,4.13
2018-07-27T12:10:38.036Z,4.27
2018-07-27T12:13:12.459Z,3.37
2018-07-27T12:15:47.441Z,2.97
2018-07-27T12:18:22.892Z,3.00
2018-07-27T12:20:57.465Z,3.70
2018-07-27T12:23:31.991Z,3.40
2018-07-27T12:26:06.539Z,3.77
2018-07-27T12:28:40.965Z,5.37
2018-07-27T12:31:15.431Z,5.03
2018-07-27T12:33:49.904Z,7.13
2018-07-27T12:36:25.395Z,4.97
2018-07-27T12:38:59.339Z,2.60
2018-07-27T12:41:35.033Z,4.07
2018-07-27T12:44:09.492Z,5.13
2018-07-27T12:46:43.956Z,3.00
2018-07-27T12:49:18.397Z,3.60
2018-07-27T12:51:52.842Z,3.07
2018-07-27T12:54:27.260Z,3.03
2018-07-27T12:57:01.715Z,4.23
2018-07-27T12:59:36.428Z,5.10
2018-07-27T13:02:10.875Z,6.30
2018-07-27T13:04:45.321Z,2.77
2018-07-27T13:07:20.804Z,2.57
2018-07-27T13:10:10.024Z,1.97
2018-07-27T13:12:45.540Z,2.77
2018-07-27T13:15:19.986Z,4.53
2018-07-27T13:17:54.445Z,2.10
2018-07-27T13:20:39.564Z,5.63
2018-07-27T13:23:14.029Z,2.40
2018-07-27T13:28:46.659Z,3.20
2018-07-27T13:31:31.023Z,4.53
2018-07-27T13:37:26.011Z,3.20
2018-07-27T13:40:01.573Z,5.13
2018-07-27T13:42:37.396Z,4.00
2018-07-27T13:45:11.858Z,7.17
2018-07-27T13:47:46.294Z,3.50
2018-07-27T13:50:20.780Z,3.60
2018-07-27T13:52:55.207Z,5.47
2018-07-27T13:55:37.742Z,4.67
2018-07-27T13:58:40.567Z,5.30
2018-07-27T14:01:20.954Z,3.60
2018-07-27T14:04:00.510Z,3.60
2018-07-27T14:06:51.969Z,5.67
2018-07-27T14:09:26.485Z,3.60
2018-07-27T14:12:17.532Z,3.17
2018-07-27T14:14:52.753Z,3.80
2018-07-27T14:17:27.511Z,3.73
2018-07-27T14:20:03.224Z,3.57
2018-07-27T14:25:43.152Z,5.07
2018-07-27T14:28:18.887Z,4.23
2018-07-27T14:30:59.128Z,6.20
2018-07-27T14:33:33.783Z,5.27
2018-07-27T14:39:07.596Z,6.13
2018-07-27T14:41:55.978Z,9.03
2018-07-27T14:44:39.985Z,3.80
2018-07-27T14:47:15.629Z,4.43
2018-07-27T14:49:50.247Z,5.13
2018-07-27T14:52:25.798Z,8.63
2018-07-27T14:55:00.352Z,5.17
2018-07-27T14:57:41.172Z,7.30
2018-07-27T15:00:24.488Z,6.43
2018-07-27T15:03:01.963Z,9.13
2018-07-27T15:06:01.812Z,3.30
2018-07-27T15:08:36.893Z,6.40
2018-07-27T15:11:11.683Z,4.07
2018-07-27T15:13:47.162Z,7.03
2018-07-27T15:16:21.175Z,3.47
2018-07-27T15:18:56.784Z,8.33
2018-07-27T15:21:31.281Z,9.33
2018-07-27T15:24:06.810Z,3.60
2018-07-27T15:26:41.232Z,9.47
2018-07-27T15:29:15.692Z,5.97
2018-07-27T15:31:50.180Z,5.30
2018-07-27T15:34:24.666Z,5.93
2018-07-27T15:36:59.091Z,5.53
2018-07-27T15:39:33.543Z,4.40
2018-07-27T15:42:08.968Z,7.47
2018-07-27T15:44:43.408Z,4.90
2018-07-27T15:47:17.819Z,6.10
2018-07-27T15:49:52.273Z,6.80
2018-07-27T15:52:26.655Z,8.60
2018-07-27T15:55:01.232Z,7.17
2018-07-27T15:57:36.197Z,5.10
2018-07-27T16:00:10.680Z,8.47
2018-07-27T16:02:46.883Z,6.70
2018-07-27T16:05:22.440Z,4.80
2018-07-27T16:07:56.876Z,8.17
2018-07-27T16:10:32.360Z,4.87
2018-07-27T16:13:07.879Z,6.43
2018-07-27T16:15:42.358Z,5.97
2018-07-27T16:18:16.773Z,6.60
2018-07-27T16:20:51.196Z,6.50
2018-07-27T16:23:25.612Z,4.60
2018-07-27T16:26:00.080Z,10.67
2018-07-27T16:28:34.472Z,9.57
2018-07-27T16:31:08.933Z,6.13
2018-07-27T16:33:42.837Z,4.23
2018-07-27T16:36:18.295Z,7.77
2018-07-27T16:38:52.699Z,7.80
2018-07-27T16:41:27.173Z,10.97
2018-07-27T16:44:02.636Z,6.43
2018-07-27T16:46:37.097Z,7.97
2018-07-27T16:49:11.525Z,5.23
2018-07-27T16:51:46.057Z,6.80
2018-07-27T16:54:21.490Z,9.23
2018-07-27T16:56:55.953Z,8.90
2018-07-27T16:59:30.344Z,8.10
2018-07-27T17:02:04.833Z,9.87
2018-07-27T17:04:38.788Z,6.60
2018-07-27T17:07:14.672Z,7.67
2018-07-27T17:09:49.160Z,8.97
2018-07-27T17:12:23.656Z,8.50
2018-07-27T17:14:58.112Z,13.17
2018-07-27T17:17:32.581Z,7.70
2018-07-27T17:20:07.186Z,9.63
2018-07-27T17:22:41.841Z,6.50
2018-07-27T17:25:16.398Z,7.30
2018-07-27T17:27:51.224Z,13.55
2018-07-27T17:30:25.943Z,6.47
2018-07-27T17:33:00.987Z,8.73
2018-07-27T17:35:36.709Z,6.30
2018-07-27T17:38:11.484Z,7.92
2018-07-27T17:40:47.203Z,8.35
2018-07-27T17:43:22.196Z,8.05
2018-07-27T17:45:56.423Z,5.53
2018-07-27T17:48:31.383Z,5.72
2018-07-27T17:51:14.395Z,7.45
2018-07-27T17:53:50.138Z,7.85
2018-07-27T17:56:24.972Z,6.00
2018-07-27T17:58:59.691Z,7.20
2018-07-27T18:01:34.459Z,4.70
2018-07-27T18:04:09.309Z,6.90
2018-07-27T18:06:44.302Z,8.80
2018-07-27T18:09:18.974Z,12.47
2018-07-27T18:11:53.227Z,7.45
2018-07-27T18:14:28.955Z,8.00
2018-07-27T18:17:03.743Z,8.15
2018-07-27T18:19:38.424Z,7.17
2018-07-27T18:22:12.906Z,7.30
2018-07-27T18:24:47.619Z,8.70
2018-07-27T18:27:23.453Z,7.12
2018-07-27T18:29:57.870Z,10.78
2018-07-27T18:32:32.601Z,5.67
2018-07-27T18:35:07.927Z,8.10
2018-07-27T18:37:42.398Z,9.67
2018-07-27T18:40:18.146Z,8.90
2018-07-27T18:42:52.401Z,4.72
2018-07-27T18:45:26.796Z,8.83
2018-07-27T18:48:01.565Z,8.00
2018-07-27T18:50:36.313Z,7.90
2018-07-27T18:53:11.061Z,9.13
2018-07-27T18:55:45.231Z,9.90
2018-07-27T18:58:19.975Z,11.70
2018-07-27T19:00:54.807Z,10.58
2018-07-27T19:03:29.600Z,7.25
2018-07-27T19:06:04.051Z,8.47
2018-07-27T19:08:38.778Z,7.47
2018-07-27T19:11:13.489Z,7.60
2018-07-27T19:13:49.276Z,9.60
2018-07-27T19:16:24.029Z,6.60
2018-07-27T19:18:58.776Z,8.83
2018-07-27T19:21:33.564Z,7.95
2018-07-27T19:24:08.376Z,7.75
2018-07-27T19:26:43.098Z,10.35
2018-07-27T19:29:18.897Z,10.40
2018-07-27T19:31:53.672Z,6.85
2018-07-27T19:34:28.543Z,7.65
2018-07-27T19:37:04.303Z,6.55
2018-07-27T19:39:39.426Z,7.70
2018-07-27T19:42:14.226Z,10.03
2018-07-27T19:44:49.135Z,8.90
2018-07-27T19:47:23.982Z,6.42
2018-07-27T19:49:58.773Z,6.90
2018-07-27T19:52:34.592Z,5.85
2018-07-27T19:55:09.330Z,11.73
2018-07-27T19:57:44.040Z,11.80
2018-07-27T20:00:18.785Z,9.70
2018-07-27T20:02:53.505Z,8.35
2018-07-27T20:05:29.271Z,10.82
2018-07-27T20:08:04.076Z,7.75
2018-07-27T20:10:38.915Z,6.80
2018-07-27T20:13:13.798Z,6.40
2018-07-27T20:15:48.484Z,6.78
2018-07-27T20:18:23.216Z,7.72
2018-07-27T20:20:57.998Z,6.25
2018-07-27T20:23:32.724Z,6.78
2018-07-27T20:26:06.957Z,8.53
2018-07-27T20:28:42.697Z,7.17
2018-07-27T20:31:16.959Z,8.30
2018-07-27T20:33:52.737Z,8.13
2018-07-27T20:36:27.214Z,6.33
2018-07-27T20:39:01.988Z,7.10
2018-07-27T20:41:36.221Z,8.80
2018-07-27T20:44:10.438Z,9.25
2018-07-27T20:46:45.231Z,11.03
2018-07-27T20:49:19.947Z,13.30
2018-07-27T20:51:54.767Z,8.80
2018-07-27T20:54:29.731Z,8.55
2018-07-27T20:57:04.035Z,8.78
2018-07-27T20:59:38.952Z,9.85
2018-07-27T21:02:13.748Z,11.45
2018-07-27T21:04:48.462Z,8.63
2018-07-27T21:07:23.347Z,13.83
2018-07-27T21:09:59.091Z,8.50
2018-07-27T21:12:33.874Z,10.88
2018-07-27T21:15:08.772Z,12.75
2018-07-27T21:17:43.553Z,15.58
2018-07-27T21:20:18.285Z,10.68
2018-07-27T21:22:54.047Z,9.60
2018-07-27T21:25:28.802Z,12.05
2018-07-27T21:28:04.077Z,14.10
2018-07-27T21:30:38.789Z,11.97
2018-07-27T21:33:13.537Z,11.25
2018-07-27T21:35:48.319Z,10.50
2018-07-27T21:38:22.562Z,12.95
2018-07-27T21:40:57.345Z,10.13
2018-07-27T21:43:32.217Z,10.58
2018-07-27T21:46:07.063Z,11.22
2018-07-27T21:48:41.964Z,12.43
2018-07-27T21:51:16.731Z,12.20
2018-07-27T21:53:51.455Z,10.23
2018-07-27T21:56:26.229Z,11.88
2018-07-27T21:59:02.016Z,11.03
2018-07-27T22:01:36.809Z,10.28
2018-07-27T22:04:12.586Z,10.63
2018-07-27T22:06:47.441Z,11.38
2018-07-27T22:09:22.190Z,9.95
2018-07-27T22:11:58.181Z,12.37
2018-07-27T22:14:32.902Z,9.50
2018-07-27T22:17:07.698Z,12.35
2018-07-27T22:19:43.019Z,11.15
2018-07-27T22:22:19.680Z,12.00
2018-07-27T22:25:10.002Z,12.25
2018-07-27T22:27:45.515Z,11.85
2018-07-27T22:30:20.371Z,11.73
2018-07-27T22:32:55.201Z,10.50
2018-07-27T22:35:29.993Z,11.68
2018-07-27T22:38:04.712Z,12.93
2018-07-27T22:40:39.493Z,9.73
2018-07-27T22:43:14.706Z,15.10
2018-07-27T22:45:49.484Z,8.90
2018-07-27T22:48:25.249Z,11.73
2018-07-27T22:51:00.049Z,13.25
2018-07-27T22:53:34.776Z,11.43
2018-07-27T22:56:09.639Z,12.10
2018-07-27T22:58:44.345Z,9.78
2018-07-27T23:01:19.176Z,10.28
2018-07-27T23:03:53.964Z,11.25
2018-07-27T23:06:28.900Z,11.63
2018-07-27T23:09:03.209Z,12.20
2018-07-27T23:11:38.020Z,12.10
2018-07-27T23:14:12.733Z,13.55
2018-07-27T23:16:47.526Z,16.00
2018-07-27T23:19:22.282Z,12.82
2018-07-27T23:21:57.053Z,11.22
2018-07-27T23:24:31.289Z,14.53
2018-07-27T23:27:06.093Z,10.78
2018-07-27T23:29:41.831Z,11.88
2018-07-27T23:32:16.674Z,9.80
2018-07-27T23:34:50.929Z,13.15
2018-07-27T23:37:25.713Z,13.58
2018-07-27T23:40:00.443Z,16.77
2018-07-27T23:42:35.074Z,10.15
2018-07-27T23:45:10.407Z,16.05
2018-07-27T23:47:45.233Z,14.70
2018-07-27T23:50:19.980Z,14.55
2018-07-27T23:52:56.273Z,13.95
2018-07-27T23:55:31.039Z,13.00
2018-07-27T23:58:05.851Z,12.18
